Time;durP1;ratioP1;P1;durP2;ratioP2;P2;SDS_P1;SDS_P2;PMS_P1;PMS_P2;Temp;Humidity;BMP_temperature;BMP_pressure;BME280_temperature;BME280_humidity;BME280_pressure;Samples;Min_cycle;Max_cycle;Signal;HPM_P1;HPM_P2
2021/12/13 09:54:43;;;;;;;8.07;4.60;;;;;;;7.31;100.00;100155.34;5169072;27;20564;-84
2021/12/13 09:57:15;;;;;;;6.00;4.03;;;;;;;7.72;100.00;100159.41;5168110;27;40220;-83
2021/12/13 09:59:47;;;;;;;6.10;3.27;;;;;;;8.05;100.00;100140.81;5169333;27;41504;-87
2021/12/13 10:02:21;;;;;;;6.83;4.13;;;;;;;8.43;100.00;100136.97;5167963;27;43101;-82
2021/12/13 10:04:51;;;;;;;5.70;4.13;;;;;;;8.67;96.88;100132.63;5169541;27;41075;-81
2021/12/13 10:07:23;;;;;;;7.50;4.10;;;;;;;8.99;94.30;100140.31;5169077;27;39354;-82
2021/12/13 10:09:54;;;;;;;7.77;4.20;;;;;;;9.11;92.46;100129.31;5169144;27;41433;-81
2021/12/13 10:12:24;;;;;;;6.97;4.20;;;;;;;9.23;90.43;100141.22;5149569;27;42710;-81
2021/12/13 10:14:57;;;;;;;6.73;3.93;;;;;;;9.29;89.45;100130.38;5168484;27;42241;-82
2021/12/13 10:17:28;;;;;;;7.70;4.87;;;;;;;9.45;88.59;100150.06;5150352;27;38413;-82
2021/12/13 10:20:00;;;;;;;6.10;3.90;;;;;;;9.47;88.31;100137.66;5169203;27;42061;-82
2021/12/13 10:22:32;;;;;;;9.53;4.40;;;;;;;9.58;87.93;100143.41;5167873;27;41663;-83
2021/12/13 10:25:06;;;;;;;7.03;4.60;;;;;;;9.62;87.36;100137.09;5168507;27;40995;-81
2021/12/13 10:27:34;;;;;;;6.07;3.37;;;;;;;9.77;87.07;100145.34;5167885;27;39112;-83
2021/12/13 10:30:08;;;;;;;6.07;3.77;;;;;;;9.73;86.43;100136.66;5197628;27;41801;-84
2021/12/13 10:32:38;;;;;;;5.53;3.17;;;;;;;9.91;86.42;100148.28;5146072;27;41800;-84
2021/12/13 10:35:10;;;;;;;6.37;3.40;;;;;;;9.90;86.30;100133.34;5130978;27;42122;-82
2021/12/13 10:37:41;;;;;;;6.17;3.70;;;;;;;9.99;85.84;100130.34;5168207;27;39036;-84
2021/12/13 10:40:14;;;;;;;5.13;3.00;;;;;;;9.89;85.33;100113.13;5150739;27;41905;-81
2021/12/13 10:42:47;;;;;;;5.60;3.10;;;;;;;10.11;85.31;100134.28;5166653;27;41588;-81
2021/12/13 10:45:21;;;;;;;4.20;3.07;;;;;;;10.14;84.99;100120.94;5150015;27;41962;-81
2021/12/13 10:47:54;;;;;;;5.47;3.23;;;;;;;10.30;84.76;100125.56;5167233;27;38804;-82
2021/12/13 10:50:29;;;;;;;6.40;3.73;;;;;;;10.36;84.06;100129.75;5149556;27;41500;-84
2021/12/13 10:52:58;;;;;;;4.07;2.70;;;;;;;10.36;84.12;100135.91;5167010;27;42863;-81
2021/12/13 10:55:30;;;;;;;5.60;3.30;;;;;;;10.42;83.95;100135.66;5184503;27;41148;-82
2021/12/13 10:57:59;;;;;;;6.37;3.90;;;;;;;10.44;83.56;100133.81;5150041;27;38767;-82
2021/12/13 11:00:33;;;;;;;4.63;3.67;;;;;;;10.42;82.85;100140.94;5166366;27;41861;-82
2021/12/13 11:03:06;;;;;;;4.43;3.50;;;;;;;10.30;82.66;100125.56;5168819;27;42814;-81
2021/12/13 11:05:35;;;;;;;5.67;3.47;;;;;;;10.36;82.70;100125.31;5138103;27;42176;-81
2021/12/13 11:08:06;;;;;;;7.33;4.53;;;;;;;10.41;83.01;100139.22;5154016;27;39820;-82
2021/12/13 11:10:38;;;;;;;5.23;3.70;;;;;;;10.44;82.72;100133.81;5136622;27;40689;-83
2021/12/13 11:13:06;;;;;;;5.67;3.40;;;;;;;10.47;82.60;100129.31;5136739;27;41714;-86
2021/12/13 11:15:38;;;;;;;6.03;3.80;;;;;;;10.38;82.26;100114.69;5153986;27;41131;-82
2021/12/13 11:18:12;;;;;;;7.47;3.57;;;;;;;10.37;82.46;100113.81;5170954;27;39910;-81
2021/12/13 11:20:44;;;;;;;6.83;3.80;;;;;;;10.44;82.07;100140.88;5153373;27;40786;-85
2021/12/13 11:23:14;;;;;;;5.33;3.80;;;;;;;10.43;82.05;100128.56;5153644;27;41842;-86
2021/12/13 11:25:48;;;;;;;7.03;3.97;;;;;;;10.34;81.84;100121.00;5153143;27;42107;-80
2021/12/13 11:28:19;;;;;;;5.27;4.03;;;;;;;10.42;82.04;100134.78;5152384;27;40154;-83
2021/12/13 11:30:49;;;;;;;6.20;4.37;;;;;;;10.36;82.08;100109.44;5152997;27;40782;-84
2021/12/13 11:34:13;;;;;;;5.80;3.60;;;;;;;10.44;81.92;100131.16;5152571;27;42821;-84
2021/12/13 11:37:14;;;;;;;8.17;4.93;;;;;;;10.47;81.80;100131.97;5134861;27;41025;-82
2021/12/13 11:39:57;;;;;;;6.90;3.83;;;;;;;10.38;81.75;100114.69;5152528;27;39037;-83
2021/12/13 11:43:04;;;;;;;7.07;4.33;;;;;;;10.48;81.82;100128.38;5152653;27;41875;-82
2021/12/13 11:45:53;;;;;;;6.67;3.77;;;;;;;10.50;81.75;100127.41;5151866;27;41794;-84
2021/12/13 11:48:57;;;;;;;6.63;4.77;;;;;;;10.58;81.60;100127.94;5187344;27;42107;-81
2021/12/13 11:51:44;;;;;;;6.23;3.60;;;;;;;10.65;81.46;100125.88;5136994;27;38939;-82
2021/12/13 11:54:39;;;;;;;4.87;3.17;;;;;;;10.81;81.36;100132.25;5131534;27;42029;-82
2021/12/13 11:58:06;;;;;;;4.67;3.80;;;;;;;10.93;81.40;100128.19;5133012;27;43181;-83
2021/12/13 12:01:21;;;;;;;7.00;4.53;;;;;;;10.90;81.05;100131.84;5086354;28;42180;-82
2021/12/13 12:04:29;;;;;;;6.83;4.20;;;;;;;10.76;80.82;100129.78;4979164;28;39848;-83
2021/12/13 12:07:32;;;;;;;6.27;4.30;;;;;;;10.66;80.93;100123.16;5132162;27;42697;-80
2021/12/13 12:10:15;;;;;;;6.37;4.47;;;;;;;10.59;81.20;100132.31;5123114;27;41452;-81
2021/12/13 12:13:10;;;;;;;7.43;4.50;;;;;;;10.57;81.20;100122.69;5153110;27;41561;-84
2021/12/13 12:15:41;;;;;;;7.73;4.27;;;;;;;10.56;81.58;100120.97;5168667;27;40040;-82
2021/12/13 12:18:13;;;;;;;6.37;4.80;;;;;;;10.56;81.18;100120.97;5152931;27;42574;-81
2021/12/13 12:20:47;;;;;;;6.67;4.37;;;;;;;10.47;81.47;100095.75;5135369;27;41592;-83
2021/12/13 12:23:26;;;;;;;8.20;5.00;;;;;;;10.44;81.40;100096.72;5151528;27;43049;-82
2021/12/13 12:25:57;;;;;;;4.63;3.30;;;;;;;10.57;81.32;100107.66;5135930;27;38765;-83
2021/12/13 12:28:26;;;;;;;5.57;3.57;;;;;;;10.54;81.27;100098.97;5168970;27;41553;-84
2021/12/13 12:30:57;;;;;;;5.43;3.70;;;;;;;10.66;81.49;100106.41;5134926;27;42295;-85
2021/12/13 12:33:29;;;;;;;6.67;4.13;;;;;;;10.68;80.99;100096.59;5151286;27;41417;-81
2021/12/13 12:36:03;;;;;;;6.00;4.17;;;;;;;10.72;81.03;100111.44;5151608;27;39868;-79
2021/12/13 12:38:57;;;;;;;4.23;3.30;;;;;;;10.70;80.89;100102.69;5128768;27;41810;-83
2021/12/13 12:41:51;;;;;;;5.70;3.80;;;;;;;10.51;81.07;100064.69;5150846;27;42198;-79
2021/12/13 12:44:22;;;;;;;6.00;3.70;;;;;;;10.88;80.95;100101.06;5151521;27;42430;-82
2021/12/13 12:46:50;;;;;;;4.30;3.03;;;;;;;10.94;80.91;100084.88;5133699;27;38888;-85
2021/12/13 12:49:23;;;;;;;5.80;4.00;;;;;;;11.08;80.67;100078.03;5151665;27;41032;-83
2021/12/13 12:51:54;;;;;;;6.17;4.33;;;;;;;11.18;80.11;100082.91;5151268;27;43850;-84
2021/12/13 12:54:23;;;;;;;5.17;3.73;;;;;;;11.31;79.75;100105.28;5133171;27;41257;-82
2021/12/13 12:56:55;;;;;;;7.97;4.50;;;;;;;11.28;79.76;100103.63;5151719;27;40009;-83
2021/12/13 12:59:26;;;;;;;6.57;3.67;;;;;;;11.21;79.75;100098.69;5134558;27;40939;-84
2021/12/13 13:02:00;;;;;;;5.87;4.00;;;;;;;11.24;79.74;100103.84;5151499;27;41909;-85
2021/12/13 13:04:30;;;;;;;5.37;3.87;;;;;;;11.26;79.62;100104.63;5151175;27;41271;-82
2021/12/13 13:07:04;;;;;;;5.67;3.87;;;;;;;11.10;79.37;100081.47;5150853;27;39877;-85
2021/12/13 13:09:47;;;;;;;4.83;3.50;;;;;;;11.07;79.49;100089.56;5134247;27;41568;-88
2021/12/13 13:12:24;;;;;;;5.90;4.37;;;;;;;10.95;79.55;100079.50;5132593;27;42517;-85
2021/12/13 13:14:56;;;;;;;6.43;3.90;;;;;;;10.98;79.36;100092.63;5133968;27;41191;-82
2021/12/13 13:17:26;;;;;;;6.10;4.30;;;;;;;10.79;79.91;100075.78;5150708;27;40096;-86
2021/12/13 13:19:57;;;;;;;5.70;4.20;;;;;;;10.81;79.94;100084.53;5134518;27;41217;-84
2021/12/13 13:22:30;;;;;;;8.03;4.10;;;;;;;10.85;80.27;100094.09;5123733;27;42037;-84
2021/12/13 13:25:11;;;;;;;6.43;3.87;;;;;;;10.59;80.22;100050.19;5133803;27;41008;-82
2021/12/13 13:27:39;;;;;;;5.53;3.40;;;;;;;10.87;79.93;100094.91;5168233;27;40045;-83
2021/12/13 13:30:09;;;;;;;4.97;3.80;;;;;;;10.89;79.96;100093.00;5167677;27;41981;-84
2021/12/13 13:32:39;;;;;;;6.13;4.63;;;;;;;10.93;79.69;100088.44;5167823;27;41514;-84
2021/12/13 13:35:07;;;;;;;5.80;3.57;;;;;;;10.95;79.93;100092.75;5133170;27;42201;-85
2021/12/13 13:37:40;;;;;;;4.43;3.10;;;;;;;10.96;80.01;100093.63;5132467;27;38943;-82
2021/12/13 13:40:13;;;;;;;6.83;4.20;;;;;;;10.97;79.98;100100.66;5150636;27;42078;-83
2021/12/13 13:42:45;;;;;;;4.37;3.37;;;;;;;10.85;80.12;100080.84;5150912;27;42545;-85
2021/12/13 13:45:20;;;;;;;4.20;3.20;;;;;;;10.81;80.10;100060.69;5133364;27;40954;-83
2021/12/13 13:47:51;;;;;;;4.70;3.07;;;;;;;11.04;79.82;100092.34;5150726;27;39730;-83
2021/12/13 13:50:23;;;;;;;4.40;3.10;;;;;;;11.05;79.72;100087.91;5133031;27;40776;-82
2021/12/13 13:52:54;;;;;;;4.67;3.70;;;;;;;11.01;79.61;100087.16;5150183;27;41693;-84
2021/12/13 13:55:26;;;;;;;3.87;2.83;;;;;;;10.99;79.74;100096.13;5165762;27;42271;-85
2021/12/13 13:57:56;;;;;;;6.57;3.60;;;;;;;10.98;80.13;100091.75;5132462;27;39948;-83
2021/12/13 14:00:25;;;;;;;5.13;3.70;;;;;;;10.89;79.92;100074.47;5132297;27;41995;-87
2021/12/13 14:02:56;;;;;;;4.30;3.13;;;;;;;10.92;79.95;100082.28;5133340;27;41502;-86
2021/12/13 14:05:24;;;;;;;6.37;3.80;;;;;;;10.71;80.07;100057.59;5132691;27;43856;-85
2021/12/13 14:07:53;;;;;;;7.47;3.83;;;;;;;10.84;79.80;100086.22;5132505;27;39711;-83
2021/12/13 14:10:23;;;;;;;6.43;4.07;;;;;;;10.80;79.98;100088.13;5131185;27;40666;-81
2021/12/13 14:12:56;;;;;;;6.83;4.60;;;;;;;10.74;80.31;100083.97;5132796;27;42851;-80
2021/12/13 14:15:27;;;;;;;6.53;4.37;;;;;;;10.69;80.27;100091.25;5132205;27;42278;-81
2021/12/13 14:17:57;;;;;;;7.23;4.60;;;;;;;10.63;80.42;100095.97;5132900;27;39765;-82
2021/12/13 14:20:30;;;;;;;6.23;3.97;;;;;;;10.52;80.86;100088.44;5132138;27;41991;-88
2021/12/13 14:23:14;;;;;;;6.50;4.07;;;;;;;10.44;80.87;100085.28;5133508;27;42157;-84
2021/12/13 14:25:45;;;;;;;4.93;3.77;;;;;;;10.38;81.29;100097.00;5132875;27;42227;-83
2021/12/13 14:28:21;;;;;;;6.37;4.63;;;;;;;10.45;81.52;100102.88;5132851;27;40454;-85
2021/12/13 14:30:51;;;;;;;6.87;3.77;;;;;;;10.31;81.57;100089.34;5149901;27;41739;-90
2021/12/13 14:33:27;;;;;;;8.10;4.17;;;;;;;10.29;81.55;100092.06;5132192;27;41893;-82
2021/12/13 14:36:07;;;;;;;6.73;3.90;;;;;;;10.17;82.09;100089.88;5132451;27;41707;-86
2021/12/13 14:38:39;;;;;;;6.23;4.60;;;;;;;10.12;82.02;100089.25;5149378;27;39490;-84
2021/12/13 14:41:10;;;;;;;5.77;3.57;;;;;;;10.22;82.15;100100.34;5152751;27;40579;-85
2021/12/13 14:43:41;;;;;;;7.23;4.23;;;;;;;10.12;82.45;100089.25;5137104;27;42952;-85
2021/12/13 14:46:12;;;;;;;6.97;4.90;;;;;;;10.15;82.46;100107.63;5135157;27;40832;-87
2021/12/13 14:48:40;;;;;;;5.73;4.57;;;;;;;10.11;82.64;100103.41;5153299;27;39663;-83
2021/12/13 14:51:12;;;;;;;6.80;3.80;;;;;;;10.06;82.82;100100.06;5135253;27;41783;-82
2021/12/13 14:53:44;;;;;;;8.27;5.23;;;;;;;10.07;82.65;100105.28;5153758;27;42712;-84
2021/12/13 14:56:15;;;;;;;10.17;5.30;;;;;;;9.95;82.88;100089.91;5134560;27;41298;-81
2021/12/13 14:58:46;;;;;;;8.97;4.40;;;;;;;10.02;82.87;100106.38;5152911;27;39539;-83
